Time;durP1;ratioP1;P1;durP2;ratioP2;P2;SDS_P1;SDS_P2;PMS_P1;PMS_P2;Temp;Humidity;BMP_temperature;BMP_pressure;BME280_temperature;BME280_humidity;BME280_pressure;Samples;Min_cycle;Max_cycle;Signal;HPM_P1;HPM_P2
2024/01/22 00:00:17;;;;;;;15.60;9.25;;;;;;;-3.18;100.00;93707.88;2101963;28;20484;-82
2024/01/22 00:01:18;;;;;;;12.73;8.98;;;;;;;-3.13;100.00;93693.84;2105902;28;20518;-80
2024/01/22 00:02:19;;;;;;;11.98;8.55;;;;;;;-3.11;100.00;93697.69;2107945;28;20027;-83
2024/01/22 00:03:20;;;;;;;13.77;8.80;;;;;;;-3.14;100.00;93687.84;2101393;28;20055;-82
2024/01/22 00:04:21;;;;;;;12.05;8.38;;;;;;;-3.22;100.00;93680.06;2097163;28;20516;-82
2024/01/22 00:05:22;;;;;;;12.60;8.30;;;;;;;-3.23;100.00;93694.97;2089522;28;20524;-80
2024/01/22 00:06:23;;;;;;;13.20;8.32;;;;;;;-3.19;100.00;93688.03;2080811;28;20374;-83
2024/01/22 00:07:24;;;;;;;12.02;8.02;;;;;;;-3.19;100.00;93690.66;2093843;28;20109;-80
2024/01/22 00:08:25;;;;;;;13.30;8.35;;;;;;;-3.18;100.00;93684.34;2106052;28;20028;-81
2024/01/22 00:09:26;;;;;;;14.32;8.32;;;;;;;-3.04;100.00;93695.34;2106189;28;20077;-83
2024/01/22 00:10:27;;;;;;;12.52;8.75;;;;;;;-3.13;100.00;93689.38;2106133;28;20102;-82
2024/01/22 00:11:29;;;;;;;12.75;8.40;;;;;;;-3.02;100.00;93683.81;2105988;28;20032;-81
2024/01/22 00:12:30;;;;;;;15.32;8.95;;;;;;;-3.17;100.00;93679.88;2114268;28;20590;-83
2024/01/22 00:13:31;;;;;;;14.63;8.50;;;;;;;-3.19;100.00;93685.41;2108654;28;20028;-83
2024/01/22 00:14:32;;;;;;;14.35;9.15;;;;;;;-3.20;100.00;93680.53;2096908;28;20484;-82
2024/01/22 00:15:34;;;;;;;13.13;8.30;;;;;;;-3.29;100.00;93680.56;2096847;28;20115;-82
2024/01/22 00:16:39;;;;;;;13.90;8.52;;;;;;;-3.15;100.00;93675.88;2104758;28;20404;-82
2024/01/22 00:17:42;;;;;;;14.63;8.02;;;;;;;-3.15;100.00;93677.72;2105595;28;20550;-81
2024/01/22 00:18:43;;;;;;;11.75;8.35;;;;;;;-3.15;100.00;93669.88;2101355;28;20519;-82
2024/01/22 00:19:44;;;;;;;11.70;8.05;;;;;;;-2.95;100.00;93671.00;2098505;28;20033;-82
2024/01/22 00:20:45;;;;;;;14.23;8.40;;;;;;;-3.07;100.00;93671.69;2109834;28;20381;-82
2024/01/22 00:21:46;;;;;;;13.02;8.73;;;;;;;-3.09;100.00;93668.59;2105998;28;20043;-82
2024/01/22 00:22:47;;;;;;;11.52;7.88;;;;;;;-2.99;100.00;93667.47;2089334;28;20803;-82
2024/01/22 00:23:48;;;;;;;12.60;8.00;;;;;;;-2.98;100.00;93663.78;2095624;28;20128;-81
2024/01/22 00:24:49;;;;;;;13.02;8.52;;;;;;;-2.99;100.00;93657.00;2097957;28;20489;-81
2024/01/22 00:25:50;;;;;;;12.65;7.93;;;;;;;-3.00;100.00;93655.47;2080868;28;20041;-83
2024/01/22 00:26:51;;;;;;;12.02;7.88;;;;;;;-3.02;100.00;93662.91;2101228;28;20028;-81
2024/01/22 00:27:52;;;;;;;14.57;8.55;;;;;;;-3.11;100.00;93658.47;2096994;28;20060;-83
2024/01/22 00:28:53;;;;;;;10.85;7.32;;;;;;;-3.18;100.00;93652.97;2088990;28;20458;-81
2024/01/22 00:29:54;;;;;;;12.60;8.65;;;;;;;-3.06;100.00;93662.75;2105685;28;20031;-81
2024/01/22 00:30:55;;;;;;;11.25;8.25;;;;;;;-3.05;100.00;93657.19;2104758;28;20085;-82
2024/01/22 00:31:55;;;;;;;11.45;7.32;;;;;;;-2.89;100.00;93654.03;2096075;28;20036;-83
2024/01/22 00:32:57;;;;;;;11.85;8.13;;;;;;;-2.99;100.00;93652.53;2089310;28;20036;-80
2024/01/22 00:33:57;;;;;;;13.15;7.88;;;;;;;-2.76;100.00;93647.81;2097781;28;20037;-80
2024/01/22 00:34:58;;;;;;;11.85;8.25;;;;;;;-2.67;100.00;93647.75;2099131;28;20094;-80
2024/01/22 00:35:59;;;;;;;15.00;9.00;;;;;;;-2.70;100.00;93643.13;2106186;28;20079;-83
2024/01/22 00:37:00;;;;;;;13.23;8.52;;;;;;;-2.84;100.00;93649.38;2115051;27;20080;-82
2024/01/22 00:38:01;;;;;;;13.38;8.73;;;;;;;-2.84;100.00;93638.94;2113952;28;20053;-81
2024/01/22 00:39:02;;;;;;;13.95;9.75;;;;;;;-2.78;100.00;93644.72;2104992;28;20408;-80
2024/01/22 00:40:04;;;;;;;13.32;9.25;;;;;;;-2.76;100.00;93639.97;2096846;28;20024;-81
2024/01/22 00:41:05;;;;;;;11.35;8.55;;;;;;;-2.83;100.00;93637.06;2089168;28;20032;-82
2024/01/22 00:42:05;;;;;;;12.77;8.90;;;;;;;-2.71;100.00;93644.22;2100927;28;20024;-81
2024/01/22 00:43:06;;;;;;;12.30;9.07;;;;;;;-2.75;100.00;93640.72;2103292;28;20058;-81
2024/01/22 00:44:07;;;;;;;15.13;9.13;;;;;;;-2.69;100.00;93631.59;2091904;28;21178;-81
2024/01/22 00:45:08;;;;;;;16.00;8.90;;;;;;;-2.68;100.00;93623.41;2090526;28;20068;-83
2024/01/22 00:46:10;;;;;;;13.93;9.15;;;;;;;-2.72;100.00;93624.38;2112540;28;20031;-81
2024/01/22 00:47:11;;;;;;;13.00;8.98;;;;;;;-2.74;100.00;93616.09;2114715;28;20023;-81
2024/01/22 00:48:12;;;;;;;12.60;8.73;;;;;;;-2.83;100.00;93627.38;2114790;28;20051;-82
2024/01/22 00:49:13;;;;;;;13.70;9.20;;;;;;;-2.69;100.00;93618.50;2105702;28;20146;-81
2024/01/22 00:50:14;;;;;;;12.75;9.00;;;;;;;-2.68;100.00;93610.31;2105330;28;20032;-80
2024/01/22 00:51:15;;;;;;;13.13;9.13;;;;;;;-2.65;100.00;93607.09;2108403;28;20095;-82
2024/01/22 00:52:15;;;;;;;14.45;8.68;;;;;;;-2.65;100.00;93603.69;2096556;28;20034;-81
2024/01/22 00:53:16;;;;;;;13.52;8.57;;;;;;;-2.82;100.00;93600.13;2097148;28;20020;-82
2024/01/22 00:54:17;;;;;;;13.27;8.70;;;;;;;-2.85;100.00;93597.41;2105304;28;20197;-83
2024/01/22 00:55:18;;;;;;;12.73;9.15;;;;;;;-2.80;100.00;93592.75;2097148;28;20706;-80
2024/01/22 00:56:19;;;;;;;12.68;8.68;;;;;;;-2.81;100.00;93599.06;2097461;28;20086;-82
2024/01/22 00:57:20;;;;;;;14.15;9.48;;;;;;;-2.61;100.00;93592.28;2104189;28;20036;-81
2024/01/22 00:58:21;;;;;;;12.10;8.07;;;;;;;-2.70;100.00;93583.72;2105460;28;20042;-82
2024/01/22 00:59:22;;;;;;;15.00;9.30;;;;;;;-2.69;100.00;93592.34;2113566;28;20020;-82
2024/01/22 01:00:23;;;;;;;12.57;8.85;;;;;;;-2.63;100.00;93591.84;2109878;28;20464;-83
2024/01/22 01:01:30;;;;;;;12.75;9.20;;;;;;;-2.63;100.00;93591.06;2113797;28;20095;-81
2024/01/22 01:02:31;;;;;;;14.75;8.77;;;;;;;-2.69;100.00;93590.50;2112844;28;20034;-81
2024/01/22 01:03:32;;;;;;;12.05;8.55;;;;;;;-2.70;100.00;93591.59;2113829;28;20051;-82
2024/01/22 01:04:33;;;;;;;13.05;8.80;;;;;;;-2.53;100.00;93588.06;2105144;28;20031;-82
2024/01/22 01:05:35;;;;;;;14.38;8.88;;;;;;;-2.50;100.00;93584.03;2104615;28;20031;-83
2024/01/22 01:06:35;;;;;;;13.20;9.02;;;;;;;-2.51;100.00;93588.50;2113599;28;20027;-82
2024/01/22 01:07:36;;;;;;;13.20;8.80;;;;;;;-2.41;100.00;93588.09;2114386;28;20036;-82
2024/01/22 01:08:37;;;;;;;14.55;8.73;;;;;;;-2.29;100.00;93584.75;2113735;28;20027;-82
2024/01/22 01:09:38;;;;;;;16.65;8.52;;;;;;;-2.45;100.00;93584.59;2114098;28;20541;-81
2024/01/22 01:10:39;;;;;;;12.85;8.27;;;;;;;-2.33;100.00;93576.00;2113955;28;20050;-82
2024/01/22 01:11:40;;;;;;;14.80;9.43;;;;;;;-2.38;100.00;93581.44;2105783;28;20468;-82
2024/01/22 01:12:41;;;;;;;14.30;8.60;;;;;;;-2.38;100.00;93579.59;2114192;28;20024;-82
2024/01/22 01:13:42;;;;;;;9.95;7.47;;;;;;;-2.46;100.00;93575.19;2105162;28;20583;-83
2024/01/22 01:14:43;;;;;;;12.70;8.82;;;;;;;-2.33;100.00;93576.00;2096088;28;20089;-80
2024/01/22 01:15:44;;;;;;;12.73;8.73;;;;;;;-2.38;100.00;93574.34;2112499;28;20437;-82
2024/01/22 01:16:51;;;;;;;15.73;9.65;;;;;;;-2.37;100.00;93572.50;2113314;28;20396;-82
2024/01/22 01:17:52;;;;;;;16.92;9.57;;;;;;;-2.36;100.00;93574.81;2097555;28;20455;-81
2024/01/22 01:18:53;;;;;;;16.00;9.57;;;;;;;-2.32;100.00;93572.31;2087508;28;20605;-81
2024/01/22 01:19:54;;;;;;;17.00;9.48;;;;;;;-2.32;100.00;93582.78;2089266;28;20704;-82
2024/01/22 01:20:55;;;;;;;13.30;9.43;;;;;;;-2.37;100.00;93575.91;2105316;28;20047;-82
2024/01/22 01:21:55;;;;;;;18.67;10.88;;;;;;;-2.33;100.00;93573.38;2098560;28;20020;-82
2024/01/22 01:22:56;;;;;;;14.98;9.85;;;;;;;-2.31;100.00;93571.22;2101605;28;20031;-82
2024/01/22 01:23:57;;;;;;;16.15;9.85;;;;;;;-2.34;100.00;93564.00;2113881;28;20658;-82
2024/01/22 01:24:58;;;;;;;18.02;9.95;;;;;;;-2.26;100.00;93568.41;2114064;28;20061;-81
2024/01/22 01:26:00;;;;;;;16.27;10.05;;;;;;;-2.37;100.00;93567.28;2104981;28;20108;-82
2024/01/22 01:27:01;;;;;;;14.38;9.43;;;;;;;-2.44;100.00;93565.19;2104368;28;20036;-81
2024/01/22 01:28:02;;;;;;;14.10;9.95;;;;;;;-2.38;100.00;93560.50;2112992;28;20122;-82
2024/01/22 01:29:03;;;;;;;15.10;9.52;;;;;;;-2.41;100.00;93554.09;2114395;28;20486;-81
2024/01/22 01:30:04;;;;;;;15.15;10.32;;;;;;;-2.46;100.00;93553.50;2112532;28;20145;-81
2024/01/22 01:31:05;;;;;;;13.80;10.05;;;;;;;-2.34;100.00;93550.94;2098607;28;20084;-82
2024/01/22 01:32:06;;;;;;;18.02;11.73;;;;;;;-2.61;100.00;93555.66;2101196;28;20032;-82
2024/01/22 01:33:07;;;;;;;16.35;10.60;;;;;;;-2.47;100.00;93551.97;2102719;28;20799;-82
2024/01/22 01:34:08;;;;;;;17.80;10.65;;;;;;;-2.42;100.00;93551.78;2097179;28;20039;-83
2024/01/22 01:35:09;;;;;;;16.30;10.35;;;;;;;-2.46;100.00;93556.13;2083812;28;20043;-82
2024/01/22 01:36:10;;;;;;;17.50;9.80;;;;;;;-2.48;100.00;93545.97;2102339;28;20033;-82
2024/01/22 01:37:11;;;;;;;15.68;10.23;;;;;;;-2.53;100.00;93548.81;2105158;28;20086;-83
2024/01/22 01:38:12;;;;;;;15.48;10.25;;;;;;;-2.55;100.00;93538.66;2104909;28;20555;-80
2024/01/22 01:39:13;;;;;;;14.32;10.15;;;;;;;-2.60;100.00;93544.09;2104905;28;20081;-81
2024/01/22 01:40:14;;;;;;;14.45;9.57;;;;;;;-2.74;100.00;93538.38;2088444;28;20520;-82
2024/01/22 01:41:15;;;;;;;13.85;9.32;;;;;;;-2.62;100.00;93541.03;2088628;28;20025;-81
2024/01/22 01:42:16;;;;;;;14.15;9.38;;;;;;;-2.64;100.00;93534.59;2096841;28;20182;-83
2024/01/22 01:43:20;;;;;;;17.10;10.30;;;;;;;-2.67;100.00;93541.25;2096704;28;20111;-82
2024/01/22 01:44:35;;;;;;;15.18;9.60;;;;;;;-2.71;100.00;93539.59;2089223;28;20029;-81
2024/01/22 01:45:36;;;;;;;15.32;9.05;;;;;;;-2.62;100.00;93541.03;2089763;28;20402;-82
2024/01/22 01:46:42;;;;;;;15.40;10.40;;;;;;;-2.63;100.00;93530.91;2094601;28;20036;-82
2024/01/22 01:47:46;;;;;;;14.05;9.02;;;;;;;-2.70;100.00;93530.66;2105451;28;20052;-81
2024/01/22 01:48:48;;;;;;;16.85;10.65;;;;;;;-2.71;100.00;93527.28;2109415;28;20499;-81
2024/01/22 01:49:50;;;;;;;12.40;9.13;;;;;;;-2.83;100.00;93527.22;2112686;28;20102;-81
2024/01/22 01:51:00;;;;;;;14.30;9.35;;;;;;;-2.61;100.00;93524.25;2096098;28;20059;-81
2024/01/22 01:52:02;;;;;;;15.63;9.95;;;;;;;-2.62;100.00;93527.19;2092642;28;20024;-83
2024/01/22 01:53:04;;;;;;;14.27;9.60;;;;;;;-2.64;100.00;93519.66;2099692;28;20031;-82
2024/01/22 01:54:07;;;;;;;14.20;9.73;;;;;;;-2.66;100.00;93524.44;2105008;28;20098;-80
2024/01/22 01:55:09;;;;;;;16.10;10.02;;;;;;;-2.73;100.00;93526.81;2099828;28;20055;-81
2024/01/22 01:56:10;;;;;;;16.02;9.85;;;;;;;-2.71;100.00;93529.13;2105351;28;20032;-83
2024/01/22 01:57:12;;;;;;;16.27;10.40;;;;;;;-2.72;100.00;93536.22;2109763;27;20043;-81
2024/01/22 01:58:14;;;;;;;15.43;9.75;;;;;;;-2.75;100.00;93536.09;2113847;28;20034;-81
2024/01/22 01:59:16;;;;;;;18.00;11.07;;;;;;;-2.70;100.00;93539.25;2106104;28;20101;-82
2024/01/22 02:00:17;;;;;;;18.13;10.48;;;;;;;-2.71;100.00;93545.59;2108006;28;20027;-82
2024/01/22 02:01:19;;;;;;;19.48;10.43;;;;;;;-2.73;100.00;93536.50;2105114;28;20050;-82
2024/01/22 02:02:20;;;;;;;15.77;10.32;;;;;;;-2.76;100.00;93535.31;2101727;28;20028;-83
2024/01/22 02:03:21;;;;;;;16.15;11.00;;;;;;;-2.71;100.00;93529.88;2096690;28;20025;-82
2024/01/22 02:04:22;;;;;;;13.40;10.35;;;;;;;-2.63;100.00;93530.91;2105231;28;20032;-82
2024/01/22 02:05:23;;;;;;;16.20;10.45;;;;;;;-2.66;100.00;93526.31;2105411;28;20480;-82
2024/01/22 02:06:24;;;;;;;15.60;10.27;;;;;;;-2.61;100.00;93534.72;2096252;28;20029;-82
2024/01/22 02:07:25;;;;;;;15.32;10.65;;;;;;;-2.55;100.00;93530.03;2096865;28;20044;-81
2024/01/22 02:08:26;;;;;;;15.52;10.60;;;;;;;-2.51;100.00;93524.91;2098291;28;20432;-82
2024/01/22 02:09:46;;;;;;;15.93;10.32;;;;;;;-2.56;100.00;93525.91;2104263;28;20039;-82
2024/01/22 02:10:47;;;;;;;;;;;;;;;-2.62;100.00;93516.72;2105013;28;20407;-81
2024/01/22 02:11:48;;;;;;;12.93;9.57;;;;;;;-2.59;100.00;93523.91;2112708;28;19912;-81
2024/01/22 02:12:50;;;;;;;15.07;9.75;;;;;;;-2.55;100.00;93516.94;2088944;28;20033;-82
2024/01/22 02:13:52;;;;;;;14.40;9.95;;;;;;;-2.72;100.00;93514.50;2088506;28;20028;-82
2024/01/22 02:14:54;;;;;;;12.80;9.35;;;;;;;-2.85;100.00;93505.88;2087852;28;20209;-82
2024/01/22 02:15:55;;;;;;;17.95;10.68;;;;;;;-2.90;100.00;93513.88;2087605;28;20032;-80
2024/01/22 02:16:56;;;;;;;16.83;10.02;;;;;;;-2.91;100.00;93510.50;2096345;28;20020;-83
2024/01/22 02:18:00;;;;;;;15.88;10.10;;;;;;;-2.91;100.00;93509.75;2104813;28;20495;-82
2024/01/22 02:19:01;;;;;;;16.30;11.00;;;;;;;-2.98;100.00;93496.44;2102279;28;20024;-81
2024/01/22 02:20:03;;;;;;;14.65;10.13;;;;;;;-3.05;100.00;93513.38;2102501;28;20376;-81
2024/01/22 02:21:04;;;;;;;12.48;9.25;;;;;;;-3.08;100.00;93502.81;2104824;28;20375;-81
2024/01/22 02:22:05;;;;;;;15.40;9.90;;;;;;;-2.73;100.00;93503.25;2105282;28;20099;-82
2024/01/22 02:23:07;;;;;;;14.73;9.50;;;;;;;-2.53;100.00;93501.69;2104972;28;20026;-83
2024/01/22 02:26:00;;;;;;;;;;;;;;;-3.41;100.00;93503.50;2147819;27;20121;-82
2024/01/22 02:27:01;;;;;;;11.15;8.07;;;;;;;-3.40;100.00;93509.50;2129921;27;19922;-82
2024/01/22 02:28:03;;;;;;;16.10;9.05;;;;;;;-3.39;100.00;93501.34;2127683;27;20427;-82
2024/01/22 02:29:04;;;;;;;14.35;9.05;;;;;;;-3.19;100.00;93501.69;2120969;28;20043;-82
2024/01/22 02:30:05;;;;;;;14.43;9.05;;;;;;;-3.15;100.00;93500.72;2127186;27;20033;-81
2024/01/22 02:31:08;;;;;;;12.82;8.55;;;;;;;-2.96;100.00;93507.34;2129205;27;20027;-82
2024/01/22 02:32:18;;;;;;;14.48;9.48;;;;;;;-3.12;100.00;93504.53;2117034;28;20023;-81
2024/01/22 02:33:19;;;;;;;12.45;8.95;;;;;;;-3.19;100.00;93504.28;2114737;27;20063;-81
2024/01/22 02:34:20;;;;;;;11.02;8.38;;;;;;;-3.10;100.00;93503.13;2127415;27;20038;-82
2024/01/22 02:35:21;;;;;;;12.57;8.52;;;;;;;-3.09;100.00;93504.66;2119066;28;20395;-83
2024/01/22 02:36:22;;;;;;;13.77;8.68;;;;;;;-3.10;100.00;93503.13;2122861;27;20555;-83
2024/01/22 02:37:23;;;;;;;14.27;8.23;;;;;;;-2.92;100.00;93500.38;2134519;27;20030;-82
2024/01/22 02:38:24;;;;;;;13.07;8.18;;;;;;;-2.92;100.00;93508.97;2121440;27;20118;-83
2024/01/22 02:39:25;;;;;;;12.73;8.23;;;;;;;-2.94;100.00;93503.31;2123127;27;20348;-83
2024/01/22 02:40:26;;;;;;;12.05;7.13;;;;;;;-2.85;100.00;93509.25;2119548;27;20031;-82
2024/01/22 02:41:27;;;;;;;11.82;7.80;;;;;;;-2.96;100.00;93508.09;2120375;27;20034;-82
2024/01/22 02:42:28;;;;;;;13.45;7.40;;;;;;;-2.99;100.00;93510.56;2121982;27;20083;-83
2024/01/22 02:43:29;;;;;;;10.85;7.57;;;;;;;-3.02;100.00;93511.25;2120094;27;20031;-82
2024/01/22 02:44:30;;;;;;;10.05;6.78;;;;;;;-3.13;100.00;93510.84;2129395;27;20092;-81
2024/01/22 02:45:31;;;;;;;8.95;6.57;;;;;;;-3.18;100.00;93506.56;2137746;27;20033;-84
2024/01/22 02:46:32;;;;;;;12.85;6.93;;;;;;;-3.18;100.00;93501.34;2130769;27;20529;-82
2024/01/22 02:47:34;;;;;;;10.40;7.10;;;;;;;-3.20;100.00;93500.16;2112438;28;20054;-82
2024/01/22 02:48:35;;;;;;;8.82;6.25;;;;;;;-3.19;100.00;93501.69;2122700;27;20035;-82
2024/01/22 02:49:36;;;;;;;9.38;6.72;;;;;;;-3.11;100.00;93503.47;2132089;27;20743;-82
2024/01/22 02:50:37;;;;;;;9.13;6.30;;;;;;;-3.04;100.00;93498.47;2111335;28;20032;-82
2024/01/22 02:51:42;;;;;;;10.30;6.60;;;;;;;-3.13;100.00;93503.00;2116924;27;20148;-82
2024/01/22 02:52:43;;;;;;;9.30;6.28;;;;;;;-3.08;100.00;93500.19;2119440;27;20068;-83
2024/01/22 02:53:45;;;;;;;8.73;6.15;;;;;;;-3.08;100.00;93490.50;2118896;28;20057;-83
2024/01/22 02:54:46;;;;;;;7.82;6.00;;;;;;;-3.15;100.00;93500.72;2129043;27;20489;-84
2024/01/22 02:55:47;;;;;;;8.02;6.05;;;;;;;-3.05;100.00;93494.31;2122190;27;20030;-83
2024/01/22 02:56:48;;;;;;;9.25;6.38;;;;;;;-2.96;100.00;93492.41;2129841;27;20018;-84
2024/01/22 02:57:48;;;;;;;10.20;6.68;;;;;;;-2.79;100.00;93502.72;2118167;27;20023;-81
2024/01/22 02:58:49;;;;;;;8.13;6.20;;;;;;;-2.70;100.00;93505.25;2018738;27;20035;-81
2024/01/22 02:59:50;;;;;;;9.05;5.85;;;;;;;-2.42;100.00;93502.03;2041258;27;20031;-82
2024/01/22 03:00:51;;;;;;;9.45;6.43;;;;;;;-2.60;100.00;93494.38;2049294;27;20073;-83
2024/01/22 03:01:52;;;;;;;9.00;6.10;;;;;;;-2.81;100.00;93496.25;2050960;27;20108;-82
2024/01/22 03:02:53;;;;;;;8.13;6.53;;;;;;;-2.95;100.00;93496.53;2059743;27;20144;-81
2024/01/22 03:03:54;;;;;;;10.75;6.63;;;;;;;-2.66;100.00;93498.28;2050545;27;22138;-81
2024/01/22 03:04:55;;;;;;;9.63;6.10;;;;;;;-2.84;100.00;93507.38;2065786;27;20030;-81
2024/01/22 03:05:56;;;;;;;9.00;6.65;;;;;;;-2.81;100.00;93497.06;2060956;27;20051;-82
2024/01/22 03:06:57;;;;;;;10.70;6.40;;;;;;;-2.84;100.00;93489.84;2071849;27;20027;-82
2024/01/22 03:07:58;;;;;;;8.52;6.88;;;;;;;-2.64;100.00;93488.25;2084806;27;20062;-82
2024/01/22 03:08:59;;;;;;;10.30;6.70;;;;;;;-2.79;100.00;93486.25;2090498;27;20046;-82
2024/01/22 03:10:00;;;;;;;10.02;6.63;;;;;;;-2.79;100.00;93494.09;2101773;27;20079;-82
2024/01/22 03:11:01;;;;;;;10.50;6.78;;;;;;;-2.59;100.00;93482.84;2113365;27;20491;-82
2024/01/22 03:12:03;;;;;;;8.07;6.50;;;;;;;-2.57;100.00;93491.13;2101189;27;20031;-82
2024/01/22 03:13:04;;;;;;;10.95;6.50;;;;;;;-2.71;100.00;93495.13;2115488;27;20034;-82
2024/01/22 03:14:05;;;;;;;9.32;6.43;;;;;;;-2.87;100.00;93490.47;2110801;28;20019;-81
2024/01/22 03:15:06;;;;;;;10.43;6.68;;;;;;;-2.71;100.00;93490.66;2105478;28;20028;-83
2024/01/22 03:16:07;;;;;;;8.77;6.47;;;;;;;-2.75;100.00;93486.38;2110263;28;20028;-83
2024/01/22 03:17:09;;;;;;;8.85;6.80;;;;;;;-2.72;100.00;93488.34;2132125;27;20026;-82
2024/01/22 03:18:11;;;;;;;11.77;6.93;;;;;;;-2.84;100.00;93482.00;2107907;27;20026;-83
2024/01/22 03:19:12;;;;;;;9.60;7.07;;;;;;;-2.93;100.00;93480.53;2044906;27;20031;-83
2024/01/22 03:20:14;;;;;;;10.48;6.82;;;;;;;-2.76;100.00;93475.16;2042782;27;20154;-81
2024/01/22 03:21:15;;;;;;;8.23;6.05;;;;;;;-2.82;100.00;93463.34;2042064;27;20377;-82
2024/01/22 03:22:16;;;;;;;11.43;7.30;;;;;;;-2.85;100.00;93466.63;2067211;27;20055;-82
2024/01/22 03:23:17;;;;;;;8.23;6.53;;;;;;;-2.97;100.00;93445.66;2067101;27;20712;-81
2024/01/22 03:24:19;;;;;;;13.30;7.35;;;;;;;-2.87;100.00;93464.31;2063584;27;21795;-82
2024/01/22 03:25:20;;;;;;;10.63;6.80;;;;;;;-2.78;100.00;93459.00;2072644;27;20711;-81
2024/01/22 03:26:22;;;;;;;12.35;7.20;;;;;;;-2.80;100.00;93467.19;2070992;27;20871;-80
2024/01/22 03:27:24;;;;;;;9.20;6.85;;;;;;;-2.80;100.00;93475.03;2078409;27;20019;-83
2024/01/22 03:28:26;;;;;;;7.50;5.85;;;;;;;-2.62;100.00;93473.00;2087721;27;20082;-81
2024/01/22 03:29:27;;;;;;;10.73;6.78;;;;;;;-2.61;100.00;93477.16;2096205;27;20027;-80
2024/01/22 03:30:27;;;;;;;9.80;6.28;;;;;;;-2.70;100.00;93475.72;2121819;27;20109;-82
2024/01/22 03:31:29;;;;;;;8.57;5.72;;;;;;;-2.80;100.00;93459.34;2119917;27;21657;-81
2024/01/22 03:32:33;;;;;;;8.82;6.75;;;;;;;-2.67;100.00;93467.97;2128967;27;20463;-81
2024/01/22 03:33:34;;;;;;;9.00;6.13;;;;;;;-2.67;100.00;93467.97;2128701;27;20027;-81
2024/01/22 03:34:35;;;;;;;8.73;6.78;;;;;;;-2.81;100.00;93465.66;2128715;27;20029;-80
2024/01/22 03:35:35;;;;;;;9.57;7.00;;;;;;;-2.77;100.00;93468.38;2129001;27;20049;-81
2024/01/22 03:36:37;;;;;;;11.25;6.85;;;;;;;-2.62;100.00;93467.00;2122508;27;20384;-83
2024/01/22 03:37:40;;;;;;;10.15;6.72;;;;;;;-2.76;100.00;93459.47;2113544;28;20035;-83
2024/01/22 03:38:41;;;;;;;9.70;6.85;;;;;;;-2.85;100.00;93471.88;2113783;27;20092;-82
2024/01/22 03:39:42;;;;;;;8.43;6.85;;;;;;;-2.69;100.00;93466.75;2131605;27;20022;-83
2024/01/22 03:41:00;;;;;;;9.93;7.05;;;;;;;-2.70;100.00;93465.25;2131917;27;20097;-81
2024/01/22 03:42:02;;;;;;;11.63;7.05;;;;;;;-2.56;100.00;93466.47;2122361;27;20033;-81
2024/01/22 03:43:03;;;;;;;10.00;7.07;;;;;;;-2.71;100.00;93463.72;2117799;27;20023;-82
2024/01/22 03:44:05;;;;;;;9.27;7.15;;;;;;;-2.69;100.00;93461.53;2113996;28;20494;-83
2024/01/22 03:45:06;;;;;;;9.80;6.88;;;;;;;-2.82;100.00;93460.72;2106234;28;20093;-81
2024/01/22 03:46:08;;;;;;;12.73;7.68;;;;;;;-2.80;100.00;93459.34;2114732;27;20455;-83
2024/01/22 03:47:09;;;;;;;13.18;8.02;;;;;;;-2.73;100.00;93455.41;2123086;27;20106;-82
2024/01/22 03:48:10;;;;;;;10.15;7.38;;;;;;;-2.84;100.00;93447.22;2123161;27;20059;-82
2024/01/22 03:49:11;;;;;;;10.18;6.63;;;;;;;-2.84;100.00;93444.63;2125227;27;20019;-83
2024/01/22 03:50:12;;;;;;;12.48;7.20;;;;;;;-2.85;100.00;93449.09;2124328;27;20421;-83
2024/01/22 03:51:13;;;;;;;10.48;7.30;;;;;;;-2.63;100.00;93449.78;2120829;27;20050;-83
2024/01/22 03:52:14;;;;;;;8.68;6.90;;;;;;;-2.57;100.00;93454.47;2117875;27;20625;-82
2024/01/22 03:53:15;;;;;;;11.70;8.15;;;;;;;-2.56;100.00;93439.53;2122535;27;20023;-83
2024/01/22 03:54:16;;;;;;;10.93;7.43;;;;;;;-2.63;100.00;93450.56;2122036;27;20034;-81
2024/01/22 03:55:17;;;;;;;11.35;7.57;;;;;;;-2.56;100.00;93448.16;2123407;27;20439;-83
2024/01/22 03:56:20;;;;;;;10.27;8.02;;;;;;;-2.66;100.00;93461.66;2122639;27;20023;-82
2024/01/22 03:57:21;;;;;;;12.32;8.43;;;;;;;-2.65;100.00;93460.56;2117579;27;20048;-81
2024/01/22 03:58:22;;;;;;;11.40;8.15;;;;;;;-2.40;100.00;93461.38;2129715;27;20019;-82
2024/01/22 03:59:23;;;;;;;12.57;8.30;;;;;;;-2.48;100.00;93464.09;2126242;27;20534;-82
2024/01/22 04:00:24;;;;;;;15.68;9.48;;;;;;;-2.40;100.00;93461.38;2128184;27;20042;-81
2024/01/22 04:01:28;;;;;;;13.57;9.43;;;;;;;-2.43;100.00;93462.03;2128812;27;20019;-83
2024/01/22 04:02:32;;;;;;;14.70;9.00;;;;;;;-2.51;100.00;93451.66;2122243;27;20104;-83
2024/01/22 04:03:35;;;;;;;14.00;8.82;;;;;;;-2.33;100.00;93463.44;2130779;27;20444;-83
2024/01/22 04:04:36;;;;;;;11.75;8.65;;;;;;;-2.36;100.00;93458.88;2121826;27;20023;-84
2024/01/22 04:05:37;;;;;;;14.18;9.40;;;;;;;-2.45;100.00;93445.13;2105748;28;20020;-81
2024/01/22 04:06:41;;;;;;;13.80;9.13;;;;;;;-2.28;100.00;93447.56;2110095;28;20024;-81
2024/01/22 04:07:41;;;;;;;13.50;9.77;;;;;;;-2.34;100.00;93448.84;2115351;27;20023;-82
2024/01/22 04:08:42;;;;;;;14.05;10.00;;;;;;;-2.21;100.00;93442.53;2123359;27;20030;-83
2024/01/22 04:09:43;;;;;;;13.80;9.05;;;;;;;-2.24;100.00;93440.53;2129331;27;20106;-82
2024/01/22 04:10:44;;;;;;;14.18;10.32;;;;;;;-2.26;100.00;93442.75;2132641;27;20042;-81
2024/01/22 04:11:45;;;;;;;14.98;9.88;;;;;;;-2.33;100.00;93432.81;2131867;27;20022;-82
2024/01/22 04:12:46;;;;;;;14.85;9.90;;;;;;;-2.34;100.00;93425.28;2122569;27;20030;-81
2024/01/22 04:13:47;;;;;;;17.40;10.77;;;;;;;-2.36;100.00;93433.47;2122324;27;20521;-81
2024/01/22 04:14:48;;;;;;;16.17;10.07;;;;;;;-2.18;100.00;93428.78;2113220;28;20436;-80
2024/01/22 04:15:52;;;;;;;14.80;9.90;;;;;;;-2.16;100.00;93423.22;2114040;28;20671;-82
2024/01/22 04:16:53;;;;;;;13.95;9.82;;;;;;;-2.19;100.00;93422.03;2125113;27;20023;-80
2024/01/22 04:17:54;;;;;;;18.08;11.00;;;;;;;-2.14;100.00;93426.28;2123748;27;20034;-81
2024/01/22 04:18:55;;;;;;;13.45;10.35;;;;;;;-2.29;100.00;93419.81;2115617;27;20028;-83
2024/01/22 04:19:56;;;;;;;15.25;10.57;;;;;;;-2.27;100.00;93422.91;2130126;27;20018;-83
2024/01/22 04:20:57;;;;;;;16.05;10.75;;;;;;;-2.39;100.00;93433.34;2123797;27;20023;-80
2024/01/22 04:21:58;;;;;;;16.30;11.32;;;;;;;-2.27;100.00;93428.13;2115529;27;20468;-82
2024/01/22 04:22:59;;;;;;;17.25;11.80;;;;;;;-2.25;100.00;93419.94;2119573;27;20027;-82
2024/01/22 04:24:00;;;;;;;14.60;10.70;;;;;;;-2.39;100.00;93433.34;2105848;28;20802;-80
2024/01/22 04:25:01;;;;;;;17.95;11.40;;;;;;;-2.29;100.00;93433.69;2105534;28;20039;-84
2024/01/22 04:26:04;;;;;;;16.08;10.75;;;;;;;-2.31;100.00;93433.25;2108370;28;20043;-82
2024/01/22 04:27:04;;;;;;;16.02;11.52;;;;;;;-2.24;100.00;93440.53;2110972;28;20732;-83
2024/01/22 04:28:05;;;;;;;14.50;10.88;;;;;;;-2.26;100.00;93431.50;2121329;27;20038;-80
2024/01/22 04:29:07;;;;;;;17.95;12.23;;;;;;;-2.25;100.00;93433.78;2115377;27;20038;-81
2024/01/22 04:30:08;;;;;;;19.73;11.32;;;;;;;-2.41;100.00;93435.53;2115382;27;20039;-83
2024/01/22 04:31:09;;;;;;;18.58;11.23;;;;;;;-2.42;100.00;93442.59;2108789;28;20059;-82
2024/01/22 04:32:10;;;;;;;18.80;11.68;;;;;;;-2.45;100.00;93439.91;2113657;28;20039;-84
2024/01/22 04:33:11;;;;;;;14.77;10.95;;;;;;;-2.22;100.00;93437.63;2114295;28;20027;-81
2024/01/22 04:34:12;;;;;;;15.23;11.18;;;;;;;-2.32;100.00;93428.34;2105766;28;20090;-83
2024/01/22 04:35:13;;;;;;;15.00;11.52;;;;;;;-2.23;100.00;93433.47;2114289;28;20043;-81
2024/01/22 04:36:14;;;;;;;15.88;10.80;;;;;;;-2.32;100.00;93447.44;2114125;28;20023;-82
2024/01/22 04:37:16;;;;;;;18.75;11.50;;;;;;;-2.31;100.00;93448.19;2114315;27;20047;-81
2024/01/22 04:38:17;;;;;;;16.08;11.57;;;;;;;-2.33;100.00;93429.41;2122090;27;20345;-82
2024/01/22 04:39:19;;;;;;;15.68;11.75;;;;;;;-2.41;100.00;93436.31;2121963;27;20429;-82
2024/01/22 04:40:20;;;;;;;18.50;12.40;;;;;;;-2.28;100.00;93429.22;2113732;28;20694;-82
2024/01/22 04:41:21;;;;;;;19.45;11.57;;;;;;;-2.32;100.00;93430.97;2114067;28;20030;-83
2024/01/22 04:42:22;;;;;;;16.88;12.52;;;;;;;-2.26;100.00;93431.50;2121679;27;20060;-82
2024/01/22 04:43:23;;;;;;;19.42;12.05;;;;;;;-2.29;100.00;93441.53;2121840;27;20507;-82
2024/01/22 04:44:27;;;;;;;16.67;10.85;;;;;;;-2.17;100.00;93440.78;2114298;28;20027;-84